sensor_id;sensor_type;location;lat;lon;timestamp;temperature;humidity
4050;DHT22;2039;50.894;6.888;2022-12-18T00:01:05;-4.20;99.90
4050;DHT22;2039;50.894;6.888;2022-12-18T00:03:38;-4.20;99.90
4050;DHT22;2039;50.894;6.888;2022-12-18T00:06:04;-4.30;99.90
4050;DHT22;2039;50.894;6.888;2022-12-18T00:08:30;-4.30;99.90
4050;DHT22;2039;50.894;6.888;2022-12-18T00:10:56;-4.30;99.90
4050;DHT22;2039;50.894;6.888;2022-12-18T00:13:28;-4.30;99.90
4050;DHT22;2039;50.894;6.888;2022-12-18T00:15:54;-4.30;99.90
4050;DHT22;2039;50.894;6.888;2022-12-18T00:18:19;-4.30;99.90
4050;DHT22;2039;50.894;6.888;2022-12-18T00:20:45;-4.20;99.90
4050;DHT22;2039;50.894;6.888;2022-12-18T00:23:11;-4.20;99.90
4050;DHT22;2039;50.894;6.888;2022-12-18T00:25:37;-4.30;99.90
4050;DHT22;2039;50.894;6.888;2022-12-18T00:28:03;-4.30;99.90
4050;DHT22;2039;50.894;6.888;2022-12-18T00:30:29;-4.30;99.90
4050;DHT22;2039;50.894;6.888;2022-12-18T00:32:56;-4.20;99.90
4050;DHT22;2039;50.894;6.888;2022-12-18T00:35:22;-4.20;99.90
4050;DHT22;2039;50.894;6.888;2022-12-18T00:37:48;-4.20;99.90
4050;DHT22;2039;50.894;6.888;2022-12-18T00:40:14;-4.30;99.90
4050;DHT22;2039;50.894;6.888;2022-12-18T00:42:40;-4.20;99.90
4050;DHT22;2039;50.894;6.888;2022-12-18T00:45:26;-4.20;99.90
4050;DHT22;2039;50.894;6.888;2022-12-18T00:47:52;-4.20;99.90
4050;DHT22;2039;50.894;6.888;2022-12-18T00:50:23;-4.30;99.90
4050;DHT22;2039;50.894;6.888;2022-12-18T00:52:52;-4.40;99.90
4050;DHT22;2039;50.894;6.888;2022-12-18T00:55:18;-4.50;99.90
4050;DHT22;2039;50.894;6.888;2022-12-18T00:57:52;-4.50;99.90
4050;DHT22;2039;50.894;6.888;2022-12-18T01:00:18;-4.50;99.90
4050;DHT22;2039;50.894;6.888;2022-12-18T01:02:44;-4.50;99.90
4050;DHT22;2039;50.894;6.888;2022-12-18T01:05:11;-4.60;99.90
4050;DHT22;2039;50.894;6.888;2022-12-18T01:07:41;-4.60;99.90
4050;DHT22;2039;50.894;6.888;2022-12-18T01:10:11;-4.60;99.90
4050;DHT22;2039;50.894;6.888;2022-12-18T01:12:37;-4.60;99.90
4050;DHT22;2039;50.894;6.888;2022-12-18T01:15:05;-4.60;99.90
4050;DHT22;2039;50.894;6.888;2022-12-18T01:17:32;-4.50;99.90
4050;DHT22;2039;50.894;6.888;2022-12-18T01:20:00;-4.50;99.90
4050;DHT22;2039;50.894;6.888;2022-12-18T01:22:26;-4.60;99.90
4050;DHT22;2039;50.894;6.888;2022-12-18T01:24:52;-4.60;99.90
4050;DHT22;2039;50.894;6.888;2022-12-18T01:27:18;-4.50;99.90
4050;DHT22;2039;50.894;6.888;2022-12-18T01:29:53;-4.50;99.90
4050;DHT22;2039;50.894;6.888;2022-12-18T01:32:19;-4.50;99.90
4050;DHT22;2039;50.894;6.888;2022-12-18T01:34:45;-4.50;99.90
4050;DHT22;2039;50.894;6.888;2022-12-18T01:37:11;-4.50;99.90
4050;DHT22;2039;50.894;6.888;2022-12-18T01:39:37;-4.50;99.90
4050;DHT22;2039;50.894;6.888;2022-12-18T01:42:14;-4.40;99.90
4050;DHT22;2039;50.894;6.888;2022-12-18T01:47:59;-4.50;99.90
4050;DHT22;2039;50.894;6.888;2022-12-18T01:50:43;-4.50;99.90
4050;DHT22;2039;50.894;6.888;2022-12-18T01:53:19;-4.50;99.90
4050;DHT22;2039;50.894;6.888;2022-12-18T01:55:55;-4.50;99.90
4050;DHT22;2039;50.894;6.888;2022-12-18T01:58:39;-4.60;99.90
4050;DHT22;2039;50.894;6.888;2022-12-18T02:01:06;-4.60;99.90
4050;DHT22;2039;50.894;6.888;2022-12-18T02:03:35;-4.60;99.90
4050;DHT22;2039;50.894;6.888;2022-12-18T02:06:13;-4.60;99.90
4050;DHT22;2039;50.894;6.888;2022-12-18T02:08:58;-4.60;99.90
4050;DHT22;2039;50.894;6.888;2022-12-18T02:14:18;-4.80;99.90
4050;DHT22;2039;50.894;6.888;2022-12-18T02:16:55;-4.70;99.90
4050;DHT22;2039;50.894;6.888;2022-12-18T02:25:05;-4.70;99.90
4050;DHT22;2039;50.894;6.888;2022-12-18T02:27:33;-4.70;99.90
4050;DHT22;2039;50.894;6.888;2022-12-18T02:30:01;-4.70;99.90
4050;DHT22;2039;50.894;6.888;2022-12-18T02:32:37;-4.70;99.90
4050;DHT22;2039;50.894;6.888;2022-12-18T02:35:06;-4.70;99.90
4050;DHT22;2039;50.894;6.888;2022-12-18T02:37:35;-4.80;99.90
4050;DHT22;2039;50.894;6.888;2022-12-18T02:40:03;-4.90;99.90
4050;DHT22;2039;50.894;6.888;2022-12-18T02:42:29;-4.90;99.90
4050;DHT22;2039;50.894;6.888;2022-12-18T02:44:56;-4.90;99.90
4050;DHT22;2039;50.894;6.888;2022-12-18T02:47:24;-4.90;99.90
4050;DHT22;2039;50.894;6.888;2022-12-18T02:52:39;-4.90;99.90
4050;DHT22;2039;50.894;6.888;2022-12-18T02:58:20;-4.90;99.90
4050;DHT22;2039;50.894;6.888;2022-12-18T03:01:00;-4.90;99.90
4050;DHT22;2039;50.894;6.888;2022-12-18T03:03:29;-4.90;99.90
4050;DHT22;2039;50.894;6.888;2022-12-18T03:08:56;-4.80;99.90
4050;DHT22;2039;50.894;6.888;2022-12-18T03:11:19;-4.90;99.90
4050;DHT22;2039;50.894;6.888;2022-12-18T03:14:06;-4.80;99.90
4050;DHT22;2039;50.894;6.888;2022-12-18T03:16:34;-4.80;99.90
4050;DHT22;2039;50.894;6.888;2022-12-18T03:19:07;-4.80;99.90
4050;DHT22;2039;50.894;6.888;2022-12-18T03:21:41;-4.80;99.90
4050;DHT22;2039;50.894;6.888;2022-12-18T03:24:09;-4.70;99.90
4050;DHT22;2039;50.894;6.888;2022-12-18T03:26:37;-4.70;99.90
4050;DHT22;2039;50.894;6.888;2022-12-18T03:29:13;-4.70;99.90
4050;DHT22;2039;50.894;6.888;2022-12-18T03:31:47;-4.70;99.90
4050;DHT22;2039;50.894;6.888;2022-12-18T03:34:19;-4.80;99.90
4050;DHT22;2039;50.894;6.888;2022-12-18T03:36:47;-4.80;99.90
4050;DHT22;2039;50.894;6.888;2022-12-18T03:39:13;-4.80;99.90
4050;DHT22;2039;50.894;6.888;2022-12-18T03:42:08;-4.80;99.90
4050;DHT22;2039;50.894;6.888;2022-12-18T03:47:19;-4.80;99.90
4050;DHT22;2039;50.894;6.888;2022-12-18T03:49:48;-4.90;99.90
4050;DHT22;2039;50.894;6.888;2022-12-18T03:52:36;-4.90;99.90
4050;DHT22;2039;50.894;6.888;2022-12-18T03:55:05;-4.90;99.90
4050;DHT22;2039;50.894;6.888;2022-12-18T03:57:33;-4.90;99.90
4050;DHT22;2039;50.894;6.888;2022-12-18T04:02:57;-4.90;99.90
4050;DHT22;2039;50.894;6.888;2022-12-18T04:05:27;-5.00;99.90
4050;DHT22;2039;50.894;6.888;2022-12-18T04:07:55;-5.00;99.90
4050;DHT22;2039;50.894;6.888;2022-12-18T04:10:22;-5.00;99.90
4050;DHT22;2039;50.894;6.888;2022-12-18T04:12:48;-5.00;99.90
4050;DHT22;2039;50.894;6.888;2022-12-18T04:15:14;-5.00;99.90
4050;DHT22;2039;50.894;6.888;2022-12-18T04:17:46;-5.00;99.90
4050;DHT22;2039;50.894;6.888;2022-12-18T04:20:13;-5.00;99.90
4050;DHT22;2039;50.894;6.888;2022-12-18T04:22:38;-5.00;99.90
4050;DHT22;2039;50.894;6.888;2022-12-18T04:25:04;-5.00;99.90
4050;DHT22;2039;50.894;6.888;2022-12-18T04:27:33;-5.10;99.90
4050;DHT22;2039;50.894;6.888;2022-12-18T04:29:59;-5.10;99.90
4050;DHT22;2039;50.894;6.888;2022-12-18T04:32:27;-5.10;99.90
4050;DHT22;2039;50.894;6.888;2022-12-18T04:34:53;-5.10;99.90
4050;DHT22;2039;50.894;6.888;2022-12-18T04:37:19;-5.10;99.90
4050;DHT22;2039;50.894;6.888;2022-12-18T04:39:45;-5.10;99.90
4050;DHT22;2039;50.894;6.888;2022-12-18T04:42:13;-5.10;99.90
4050;DHT22;2039;50.894;6.888;2022-12-18T04:44:39;-5.10;99.90
4050;DHT22;2039;50.894;6.888;2022-12-18T04:47:05;-5.10;99.90
4050;DHT22;2039;50.894;6.888;2022-12-18T04:49:30;-5.10;99.90
4050;DHT22;2039;50.894;6.888;2022-12-18T04:51:56;-5.10;99.90
4050;DHT22;2039;50.894;6.888;2022-12-18T04:54:22;-5.10;99.90
4050;DHT22;2039;50.894;6.888;2022-12-18T04:56:48;-5.10;99.90
4050;DHT22;2039;50.894;6.888;2022-12-18T04:59:13;-5.10;99.90
4050;DHT22;2039;50.894;6.888;2022-12-18T05:01:39;-5.10;99.90
4050;DHT22;2039;50.894;6.888;2022-12-18T05:04:05;-5.20;99.90
4050;DHT22;2039;50.894;6.888;2022-12-18T05:06:31;-5.20;99.90
4050;DHT22;2039;50.894;6.888;2022-12-18T05:08:57;-5.20;99.90
4050;DHT22;2039;50.894;6.888;2022-12-18T05:11:23;-5.30;99.90
4050;DHT22;2039;50.894;6.888;2022-12-18T05:13:49;-5.30;99.90
4050;DHT22;2039;50.894;6.888;2022-12-18T05:16:15;-5.30;99.90
4050;DHT22;2039;50.894;6.888;2022-12-18T05:18:41;-5.40;99.90
4050;DHT22;2039;50.894;6.888;2022-12-18T05:21:13;-5.50;99.90
4050;DHT22;2039;50.894;6.888;2022-12-18T05:23:39;-5.50;99.90
4050;DHT22;2039;50.894;6.888;2022-12-18T05:26:06;-5.50;99.90
4050;DHT22;2039;50.894;6.888;2022-12-18T05:28:34;-5.50;99.90
4050;DHT22;2039;50.894;6.888;2022-12-18T05:31:04;-5.50;99.90
4050;DHT22;2039;50.894;6.888;2022-12-18T05:33:31;-5.50;99.90
4050;DHT22;2039;50.894;6.888;2022-12-18T05:36:03;-5.40;99.90
4050;DHT22;2039;50.894;6.888;2022-12-18T05:38:31;-5.40;99.90
4050;DHT22;2039;50.894;6.888;2022-12-18T05:40:58;-5.40;99.90
4050;DHT22;2039;50.894;6.888;2022-12-18T05:43:25;-5.40;99.90
4050;DHT22;2039;50.894;6.888;2022-12-18T05:45:52;-5.40;99.90
4050;DHT22;2039;50.894;6.888;2022-12-18T05:48:18;-5.30;99.90
4050;DHT22;2039;50.894;6.888;2022-12-18T05:50:45;-5.30;99.90
4050;DHT22;2039;50.894;6.888;2022-12-18T05:53:13;-5.30;99.90
4050;DHT22;2039;50.894;6.888;2022-12-18T05:55:40;-5.30;99.90
4050;DHT22;2039;50.894;6.888;2022-12-18T05:58:07;-5.30;99.90
4050;DHT22;2039;50.894;6.888;2022-12-18T06:00:35;-5.30;99.90
4050;DHT22;2039;50.894;6.888;2022-12-18T06:03:02;-5.30;99.90
4050;DHT22;2039;50.894;6.888;2022-12-18T06:05:28;-5.30;99.90
4050;DHT22;2039;50.894;6.888;2022-12-18T06:07:53;-5.30;99.90
4050;DHT22;2039;50.894;6.888;2022-12-18T06:10:19;-5.30;99.90
4050;DHT22;2039;50.894;6.888;2022-12-18T06:12:44;-5.20;99.90
4050;DHT22;2039;50.894;6.888;2022-12-18T06:15:10;-5.20;99.90
4050;DHT22;2039;50.894;6.888;2022-12-18T06:17:36;-5.20;99.90
4050;DHT22;2039;50.894;6.888;2022-12-18T06:20:03;-5.20;99.90
4050;DHT22;2039;50.894;6.888;2022-12-18T06:22:31;-5.20;99.90
4050;DHT22;2039;50.894;6.888;2022-12-18T06:24:57;-5.30;99.90
4050;DHT22;2039;50.894;6.888;2022-12-18T06:27:22;-5.20;99.90
4050;DHT22;2039;50.894;6.888;2022-12-18T06:29:48;-5.20;99.90
4050;DHT22;2039;50.894;6.888;2022-12-18T06:32:14;-5.10;99.90
4050;DHT22;2039;50.894;6.888;2022-12-18T06:34:40;-5.10;99.90
4050;DHT22;2039;50.894;6.888;2022-12-18T06:37:06;-5.10;99.90
4050;DHT22;2039;50.894;6.888;2022-12-18T06:39:31;-5.00;99.90
4050;DHT22;2039;50.894;6.888;2022-12-18T06:41:57;-5.00;99.90
4050;DHT22;2039;50.894;6.888;2022-12-18T06:44:23;-5.10;99.90
4050;DHT22;2039;50.894;6.888;2022-12-18T06:46:48;-5.10;99.90
4050;DHT22;2039;50.894;6.888;2022-12-18T06:49:14;-5.10;99.90
4050;DHT22;2039;50.894;6.888;2022-12-18T06:51:41;-5.10;99.90
4050;DHT22;2039;50.894;6.888;2022-12-18T06:54:08;-5.20;99.90
4050;DHT22;2039;50.894;6.888;2022-12-18T06:56:33;-5.20;99.90
4050;DHT22;2039;50.894;6.888;2022-12-18T06:58:59;-5.20;99.90
4050;DHT22;2039;50.894;6.888;2022-12-18T07:01:25;-5.20;99.90
4050;DHT22;2039;50.894;6.888;2022-12-18T07:03:55;-5.20;99.90
4050;DHT22;2039;50.894;6.888;2022-12-18T07:06:23;-5.20;99.90
4050;DHT22;2039;50.894;6.888;2022-12-18T07:08:50;-5.10;99.90
4050;DHT22;2039;50.894;6.888;2022-12-18T07:11:17;-5.10;99.90
4050;DHT22;2039;50.894;6.888;2022-12-18T07:13:43;-5.10;99.90
4050;DHT22;2039;50.894;6.888;2022-12-18T07:16:12;-5.10;99.90
4050;DHT22;2039;50.894;6.888;2022-12-18T07:18:38;-5.10;99.90
4050;DHT22;2039;50.894;6.888;2022-12-18T07:21:08;-5.10;99.90
4050;DHT22;2039;50.894;6.888;2022-12-18T07:23:35;-5.10;99.90
4050;DHT22;2039;50.894;6.888;2022-12-18T07:26:05;-5.10;99.90
4050;DHT22;2039;50.894;6.888;2022-12-18T07:28:32;-5.10;99.90
4050;DHT22;2039;50.894;6.888;2022-12-18T07:31:01;-5.10;99.90
4050;DHT22;2039;50.894;6.888;2022-12-18T07:33:27;-5.10;99.90
4050;DHT22;2039;50.894;6.888;2022-12-18T07:35:52;-5.10;99.90
4050;DHT22;2039;50.894;6.888;2022-12-18T07:38:18;-5.10;99.90
4050;DHT22;2039;50.894;6.888;2022-12-18T07:40:44;-5.10;99.90
4050;DHT22;2039;50.894;6.888;2022-12-18T07:43:09;-5.00;99.90
4050;DHT22;2039;50.894;6.888;2022-12-18T07:45:35;-5.00;99.90
4050;DHT22;2039;50.894;6.888;2022-12-18T07:48:01;-5.00;99.90
4050;DHT22;2039;50.894;6.888;2022-12-18T07:50:27;-4.90;99.90
4050;DHT22;2039;50.894;6.888;2022-12-18T07:52:52;-4.90;99.90
4050;DHT22;2039;50.894;6.888;2022-12-18T07:55:18;-4.90;99.90
4050;DHT22;2039;50.894;6.888;2022-12-18T07:57:44;-4.90;99.90
4050;DHT22;2039;50.894;6.888;2022-12-18T08:00:10;-4.90;99.90
4050;DHT22;2039;50.894;6.888;2022-12-18T08:02:36;-4.90;99.90
4050;DHT22;2039;50.894;6.888;2022-12-18T08:05:01;-4.80;99.90
4050;DHT22;2039;50.894;6.888;2022-12-18T08:07:27;-4.80;99.90
4050;DHT22;2039;50.894;6.888;2022-12-18T08:09:53;-4.80;99.90
4050;DHT22;2039;50.894;6.888;2022-12-18T08:12:19;-4.80;99.90
4050;DHT22;2039;50.894;6.888;2022-12-18T08:14:44;-4.70;99.90
4050;DHT22;2039;50.894;6.888;2022-12-18T08:17:15;-4.80;99.90
4050;DHT22;2039;50.894;6.888;2022-12-18T08:19:41;-4.70;99.90
4050;DHT22;2039;50.894;6.888;2022-12-18T08:22:07;-4.60;99.90
4050;DHT22;2039;50.894;6.888;2022-12-18T08:24:32;-4.60;99.90
4050;DHT22;2039;50.894;6.888;2022-12-18T08:26:58;-4.60;99.90
4050;DHT22;2039;50.894;6.888;2022-12-18T08:29:24;-4.60;99.90
4050;DHT22;2039;50.894;6.888;2022-12-18T08:31:49;-4.50;99.90
4050;DHT22;2039;50.894;6.888;2022-12-18T08:34:15;-4.50;99.90
4050;DHT22;2039;50.894;6.888;2022-12-18T08:36:41;-4.50;99.90
4050;DHT22;2039;50.894;6.888;2022-12-18T08:39:07;-4.50;99.90
4050;DHT22;2039;50.894;6.888;2022-12-18T08:41:32;-4.40;99.90
4050;DHT22;2039;50.894;6.888;2022-12-18T08:43:58;-4.40;99.90
4050;DHT22;2039;50.894;6.888;2022-12-18T08:46:43;-4.30;99.90
4050;DHT22;2039;50.894;6.888;2022-12-18T08:49:10;-4.30;99.90
4050;DHT22;2039;50.894;6.888;2022-12-18T08:51:37;-4.30;99.90
4050;DHT22;2039;50.894;6.888;2022-12-18T08:54:04;-4.30;99.90
4050;DHT22;2039;50.894;6.888;2022-12-18T08:56:30;-4.20;99.90
4050;DHT22;2039;50.894;6.888;2022-12-18T08:58:56;-4.20;99.90
4050;DHT22;2039;50.894;6.888;2022-12-18T09:01:23;-4.20;99.90
4050;DHT22;2039;50.894;6.888;2022-12-18T09:03:49;-4.10;99.90
4050;DHT22;2039;50.894;6.888;2022-12-18T09:06:17;-4.00;99.90
4050;DHT22;2039;50.894;6.888;2022-12-18T09:08:46;-4.00;99.90
4050;DHT22;2039;50.894;6.888;2022-12-18T09:11:22;-3.90;99.90
4050;DHT22;2039;50.894;6.888;2022-12-18T09:13:49;-3.80;99.90
4050;DHT22;2039;50.894;6.888;2022-12-18T09:16:15;-3.80;99.90
4050;DHT22;2039;50.894;6.888;2022-12-18T09:18:41;-3.80;99.90
4050;DHT22;2039;50.894;6.888;2022-12-18T09:21:14;-3.80;99.90
4050;DHT22;2039;50.894;6.888;2022-12-18T09:23:40;-3.80;99.90
4050;DHT22;2039;50.894;6.888;2022-12-18T09:26:06;-3.70;99.90
4050;DHT22;2039;50.894;6.888;2022-12-18T09:28:32;-3.70;99.90
4050;DHT22;2039;50.894;6.888;2022-12-18T09:30:58;-3.70;99.90
4050;DHT22;2039;50.894;6.888;2022-12-18T09:33:24;-3.70;99.90
4050;DHT22;2039;50.894;6.888;2022-12-18T09:35:49;-3.60;99.90
4050;DHT22;2039;50.894;6.888;2022-12-18T09:38:18;-3.60;99.90
4050;DHT22;2039;50.894;6.888;2022-12-18T09:40:49;-3.50;99.90
4050;DHT22;2039;50.894;6.888;2022-12-18T09:45:57;-3.40;99.90
4050;DHT22;2039;50.894;6.888;2022-12-18T09:48:41;-3.40;99.90
4050;DHT22;2039;50.894;6.888;2022-12-18T09:51:52;-3.30;99.90
4050;DHT22;2039;50.894;6.888;2022-12-18T09:54:16;-3.20;99.90
4050;DHT22;2039;50.894;6.888;2022-12-18T09:56:43;-3.10;99.90
4050;DHT22;2039;50.894;6.888;2022-12-18T09:59:25;-3.00;99.90
4050;DHT22;2039;50.894;6.888;2022-12-18T10:01:52;-3.00;99.90
4050;DHT22;2039;50.894;6.888;2022-12-18T10:04:17;-2.90;99.90
4050;DHT22;2039;50.894;6.888;2022-12-18T10:09:33;-2.80;99.90
4050;DHT22;2039;50.894;6.888;2022-12-18T10:15:01;-2.70;99.90
4050;DHT22;2039;50.894;6.888;2022-12-18T10:18:03;-2.70;99.90
4050;DHT22;2039;50.894;6.888;2022-12-18T10:20:51;-2.60;99.90
4050;DHT22;2039;50.894;6.888;2022-12-18T10:23:33;-2.50;99.90
4050;DHT22;2039;50.894;6.888;2022-12-18T10:26:08;-2.50;99.90
4050;DHT22;2039;50.894;6.888;2022-12-18T10:28:39;-2.40;99.90
4050;DHT22;2039;50.894;6.888;2022-12-18T10:31:16;-2.30;99.90
4050;DHT22;2039;50.894;6.888;2022-12-18T10:33:43;-2.20;99.90
4050;DHT22;2039;50.894;6.888;2022-12-18T10:36:09;-2.10;99.90
4050;DHT22;2039;50.894;6.888;2022-12-18T10:38:35;-2.00;99.90
4050;DHT22;2039;50.894;6.888;2022-12-18T10:44:16;-1.90;99.90
4050;DHT22;2039;50.894;6.888;2022-12-18T10:46:44;-1.90;99.90
4050;DHT22;2039;50.894;6.888;2022-12-18T10:49:23;-1.80;99.90
4050;DHT22;2039;50.894;6.888;2022-12-18T10:54:50;-1.70;99.90
4050;DHT22;2039;50.894;6.888;2022-12-18T10:57:39;-1.70;99.90
4050;DHT22;2039;50.894;6.888;2022-12-18T11:00:25;-1.70;99.90
4050;DHT22;2039;50.894;6.888;2022-12-18T11:02:51;-1.70;99.90
4050;DHT22;2039;50.894;6.888;2022-12-18T11:05:26;-1.70;99.90
4050;DHT22;2039;50.894;6.888;2022-12-18T11:07:53;-1.60;99.90
4050;DHT22;2039;50.894;6.888;2022-12-18T11:10:29;-1.60;99.90
4050;DHT22;2039;50.894;6.888;2022-12-18T11:12:55;-1.60;99.90
4050;DHT22;2039;50.894;6.888;2022-12-18T11:15:26;-1.50;99.90
4050;DHT22;2039;50.894;6.888;2022-12-18T11:17:53;-1.50;99.90
4050;DHT22;2039;50.894;6.888;2022-12-18T11:20:31;-1.50;99.90
4050;DHT22;2039;50.894;6.888;2022-12-18T11:23:03;-1.50;99.90
4050;DHT22;2039;50.894;6.888;2022-12-18T11:25:30;-1.50;99.90
4050;DHT22;2039;50.894;6.888;2022-12-18T11:28:08;-1.40;99.90
4050;DHT22;2039;50.894;6.888;2022-12-18T11:33:21;-1.40;99.90
4050;DHT22;2039;50.894;6.888;2022-12-18T11:35:54;-1.40;99.90
4050;DHT22;2039;50.894;6.888;2022-12-18T11:38:26;-1.40;99.90
4050;DHT22;2039;50.894;6.888;2022-12-18T11:43:50;-1.40;99.90
4050;DHT22;2039;50.894;6.888;2022-12-18T11:46:47;-1.30;99.90
4050;DHT22;2039;50.894;6.888;2022-12-18T11:49:25;-1.30;99.90
4050;DHT22;2039;50.894;6.888;2022-12-18T11:54:35;-1.30;99.90
4050;DHT22;2039;50.894;6.888;2022-12-18T12:00:00;-1.20;99.90
4050;DHT22;2039;50.894;6.888;2022-12-18T12:11:15;-1.20;99.90
4050;DHT22;2039;50.894;6.888;2022-12-18T12:14:15;-1.20;99.90
4050;DHT22;2039;50.894;6.888;2022-12-18T12:23:06;-1.30;99.90
4050;DHT22;2039;50.894;6.888;2022-12-18T12:25:46;-1.20;99.90
4050;DHT22;2039;50.894;6.888;2022-12-18T12:36:20;-1.30;99.90
4050;DHT22;2039;50.894;6.888;2022-12-18T12:38:54;-1.20;99.90
4050;DHT22;2039;50.894;6.888;2022-12-18T12:41:24;-1.20;99.90
4050;DHT22;2039;50.894;6.888;2022-12-18T12:44:20;-1.20;99.90
4050;DHT22;2039;50.894;6.888;2022-12-18T12:46:47;-1.20;99.90
4050;DHT22;2039;50.894;6.888;2022-12-18T12:49:18;-1.10;99.90
4050;DHT22;2039;50.894;6.888;2022-12-18T12:52:11;-1.10;99.90
4050;DHT22;2039;50.894;6.888;2022-12-18T12:54:39;-1.10;99.90
4050;DHT22;2039;50.894;6.888;2022-12-18T12:57:16;-1.10;99.90
4050;DHT22;2039;50.894;6.888;2022-12-18T13:02:59;-1.10;99.90
4050;DHT22;2039;50.894;6.888;2022-12-18T13:05:50;-1.10;99.90
4050;DHT22;2039;50.894;6.888;2022-12-18T13:08:25;-1.00;99.90
4050;DHT22;2039;50.894;6.888;2022-12-18T13:10:52;-1.00;99.90
4050;DHT22;2039;50.894;6.888;2022-12-18T13:13:55;-1.00;99.90
4050;DHT22;2039;50.894;6.888;2022-12-18T13:16:23;-1.00;99.90
4050;DHT22;2039;50.894;6.888;2022-12-18T13:18:53;-1.00;99.90
4050;DHT22;2039;50.894;6.888;2022-12-18T13:21:27;-1.00;99.90
4050;DHT22;2039;50.894;6.888;2022-12-18T13:23:53;-1.00;99.90
4050;DHT22;2039;50.894;6.888;2022-12-18T13:31:15;-0.90;99.90
4050;DHT22;2039;50.894;6.888;2022-12-18T13:34:16;-0.90;99.90
4050;DHT22;2039;50.894;6.888;2022-12-18T13:36:43;-0.90;99.90
4050;DHT22;2039;50.894;6.888;2022-12-18T13:39:20;-0.90;99.90
4050;DHT22;2039;50.894;6.888;2022-12-18T13:44:59;-0.90;99.90
4050;DHT22;2039;50.894;6.888;2022-12-18T13:47:34;-0.90;99.90
4050;DHT22;2039;50.894;6.888;2022-12-18T13:50:10;-0.90;99.90
4050;DHT22;2039;50.894;6.888;2022-12-18T13:52:43;-0.90;99.90
4050;DHT22;2039;50.894;6.888;2022-12-18T13:55:18;-0.90;99.90
4050;DHT22;2039;50.894;6.888;2022-12-18T13:57:47;-0.90;99.90
4050;DHT22;2039;50.894;6.888;2022-12-18T14:02:48;-1.00;99.90
4050;DHT22;2039;50.894;6.888;2022-12-18T14:05:25;-1.00;99.90
4050;DHT22;2039;50.894;6.888;2022-12-18T14:08:08;-1.00;99.90
4050;DHT22;2039;50.894;6.888;2022-12-18T14:10:35;-1.00;99.90
4050;DHT22;2039;50.894;6.888;2022-12-18T14:13:08;-1.00;99.90
4050;DHT22;2039;50.894;6.888;2022-12-18T14:15:41;-1.00;99.90
4050;DHT22;2039;50.894;6.888;2022-12-18T14:21:04;-1.00;99.90
4050;DHT22;2039;50.894;6.888;2022-12-18T14:23:31;-1.00;99.90
4050;DHT22;2039;50.894;6.888;2022-12-18T14:25:57;-1.00;99.90
4050;DHT22;2039;50.894;6.888;2022-12-18T14:28:24;-1.10;99.90
4050;DHT22;2039;50.894;6.888;2022-12-18T14:30:52;-1.10;99.90
4050;DHT22;2039;50.894;6.888;2022-12-18T14:33:25;-1.10;99.90
4050;DHT22;2039;50.894;6.888;2022-12-18T14:36:03;-1.10;99.90
4050;DHT22;2039;50.894;6.888;2022-12-18T14:38:39;-1.10;99.90
4050;DHT22;2039;50.894;6.888;2022-12-18T14:41:13;-1.10;99.90
4050;DHT22;2039;50.894;6.888;2022-12-18T14:43:42;-1.10;99.90
4050;DHT22;2039;50.894;6.888;2022-12-18T14:52:23;-1.20;99.90
4050;DHT22;2039;50.894;6.888;2022-12-18T14:54:54;-1.20;99.90
4050;DHT22;2039;50.894;6.888;2022-12-18T14:57:23;-1.20;99.90
4050;DHT22;2039;50.894;6.888;2022-12-18T14:59:50;-1.20;99.90
4050;DHT22;2039;50.894;6.888;2022-12-18T15:02:27;-1.20;99.90
4050;DHT22;2039;50.894;6.888;2022-12-18T15:05:02;-1.20;99.90
4050;DHT22;2039;50.894;6.888;2022-12-18T15:07:40;-1.20;99.90
4050;DHT22;2039;50.894;6.888;2022-12-18T15:10:20;-1.20;99.90
4050;DHT22;2039;50.894;6.888;2022-12-18T15:18:09;-1.30;99.90
4050;DHT22;2039;50.894;6.888;2022-12-18T15:20:45;-1.30;99.90
4050;DHT22;2039;50.894;6.888;2022-12-18T15:23:27;-1.30;99.90
4050;DHT22;2039;50.894;6.888;2022-12-18T15:26:00;-1.30;99.90
4050;DHT22;2039;50.894;6.888;2022-12-18T15:28:36;-1.30;99.90
4050;DHT22;2039;50.894;6.888;2022-12-18T15:31:17;-1.30;99.90
4050;DHT22;2039;50.894;6.888;2022-12-18T15:36:19;-1.30;99.90
4050;DHT22;2039;50.894;6.888;2022-12-18T15:38:50;-1.30;99.90
4050;DHT22;2039;50.894;6.888;2022-12-18T15:41:22;-1.30;99.90
4050;DHT22;2039;50.894;6.888;2022-12-18T15:43:52;-1.30;99.90
4050;DHT22;2039;50.894;6.888;2022-12-18T15:46:23;-1.30;99.90
4050;DHT22;2039;50.894;6.888;2022-12-18T15:48:51;-1.30;99.90
4050;DHT22;2039;50.894;6.888;2022-12-18T15:51:24;-1.40;99.90
4050;DHT22;2039;50.894;6.888;2022-12-18T15:53:52;-1.30;99.90
4050;DHT22;2039;50.894;6.888;2022-12-18T15:56:19;-1.40;99.90
4050;DHT22;2039;50.894;6.888;2022-12-18T15:59:13;-1.40;99.90
4050;DHT22;2039;50.894;6.888;2022-12-18T16:01:39;-1.30;99.90
4050;DHT22;2039;50.894;6.888;2022-12-18T16:04:05;-1.30;99.90
4050;DHT22;2039;50.894;6.888;2022-12-18T16:06:31;-1.30;99.90
4050;DHT22;2039;50.894;6.888;2022-12-18T16:08:56;-1.40;99.90
4050;DHT22;2039;50.894;6.888;2022-12-18T16:11:28;-1.30;99.90
4050;DHT22;2039;50.894;6.888;2022-12-18T16:14:22;-1.30;99.90
4050;DHT22;2039;50.894;6.888;2022-12-18T16:16:51;-1.30;99.90
4050;DHT22;2039;50.894;6.888;2022-12-18T16:19:18;-1.30;99.90
4050;DHT22;2039;50.894;6.888;2022-12-18T16:21:45;-1.40;99.90
4050;DHT22;2039;50.894;6.888;2022-12-18T16:24:22;-1.40;99.90
4050;DHT22;2039;50.894;6.888;2022-12-18T16:26:49;-1.40;99.90
4050;DHT22;2039;50.894;6.888;2022-12-18T16:29:17;-1.40;99.90
4050;DHT22;2039;50.894;6.888;2022-12-18T16:31:59;-1.40;99.90
4050;DHT22;2039;50.894;6.888;2022-12-18T16:34:32;-1.40;99.90
4050;DHT22;2039;50.894;6.888;2022-12-18T16:37:06;-1.40;99.90
4050;DHT22;2039;50.894;6.888;2022-12-18T16:39:37;-1.40;99.90
4050;DHT22;2039;50.894;6.888;2022-12-18T16:42:04;-1.40;99.90
4050;DHT22;2039;50.894;6.888;2022-12-18T16:44:30;-1.40;99.90
4050;DHT22;2039;50.894;6.888;2022-12-18T16:46:56;-1.50;99.90
4050;DHT22;2039;50.894;6.888;2022-12-18T16:49:30;-1.50;99.90
4050;DHT22;2039;50.894;6.888;2022-12-18T16:51:55;-1.50;99.90
4050;DHT22;2039;50.894;6.888;2022-12-18T16:54:21;-1.50;99.90
4050;DHT22;2039;50.894;6.888;2022-12-18T16:56:47;-1.50;99.90
4050;DHT22;2039;50.894;6.888;2022-12-18T16:59:15;-1.50;99.90
4050;DHT22;2039;50.894;6.888;2022-12-18T17:01:41;-1.50;99.90
4050;DHT22;2039;50.894;6.888;2022-12-18T17:04:07;-1.50;99.90
4050;DHT22;2039;50.894;6.888;2022-12-18T17:06:38;-1.50;99.90
4050;DHT22;2039;50.894;6.888;2022-12-18T17:09:13;-1.50;99.90
4050;DHT22;2039;50.894;6.888;2022-12-18T17:11:40;-1.50;99.90
4050;DHT22;2039;50.894;6.888;2022-12-18T17:14:14;-1.50;99.90
4050;DHT22;2039;50.894;6.888;2022-12-18T17:16:40;-1.50;99.90
4050;DHT22;2039;50.894;6.888;2022-12-18T17:19:06;-1.50;99.90
4050;DHT22;2039;50.894;6.888;2022-12-18T17:21:32;-1.50;99.90
4050;DHT22;2039;50.894;6.888;2022-12-18T17:24:01;-1.60;99.90
4050;DHT22;2039;50.894;6.888;2022-12-18T17:26:27;-1.60;99.90
4050;DHT22;2039;50.894;6.888;2022-12-18T17:28:55;-1.60;99.90
4050;DHT22;2039;50.894;6.888;2022-12-18T17:31:24;-1.60;99.90
4050;DHT22;2039;50.894;6.888;2022-12-18T17:33:50;-1.60;99.90
4050;DHT22;2039;50.894;6.888;2022-12-18T17:36:16;-1.60;99.90
4050;DHT22;2039;50.894;6.888;2022-12-18T17:38:42;-1.60;99.90
4050;DHT22;2039;50.894;6.888;2022-12-18T17:41:10;-1.60;99.90
4050;DHT22;2039;50.894;6.888;2022-12-18T17:43:37;-1.60;99.90
4050;DHT22;2039;50.894;6.888;2022-12-18T17:46:12;-1.60;99.90
4050;DHT22;2039;50.894;6.888;2022-12-18T17:48:39;-1.60;99.90
4050;DHT22;2039;50.894;6.888;2022-12-18T17:51:06;-1.60;99.90
4050;DHT22;2039;50.894;6.888;2022-12-18T17:53:32;-1.60;99.90
4050;DHT22;2039;50.894;6.888;2022-12-18T17:56:00;-1.60;99.90
4050;DHT22;2039;50.894;6.888;2022-12-18T17:58:27;-1.60;99.90
4050;DHT22;2039;50.894;6.888;2022-12-18T18:00:53;-1.50;99.90
4050;DHT22;2039;50.894;6.888;2022-12-18T18:03:19;-1.60;99.90
4050;DHT22;2039;50.894;6.888;2022-12-18T18:05:45;-1.60;99.90